sensor_id;sensor_type;location;lat;lon;timestamp;pressure;altitude;pressure_sealevel;temperature;humidity
20394;BME280;10356;50.544;9.642;2023-02-23T00:00:13;97928.56;;;4.51;100.00
20394;BME280;10356;50.544;9.642;2023-02-23T00:02:46;97938.09;;;4.50;100.00
20394;BME280;10356;50.544;9.642;2023-02-23T00:05:13;97930.41;;;4.49;100.00
20394;BME280;10356;50.544;9.642;2023-02-23T00:07:41;97934.09;;;4.45;100.00
20394;BME280;10356;50.544;9.642;2023-02-23T00:10:10;97929.97;;;4.42;100.00
20394;BME280;10356;50.544;9.642;2023-02-23T00:12:37;97935.28;;;4.39;100.00
20394;BME280;10356;50.544;9.642;2023-02-23T00:15:04;97922.38;;;4.39;100.00
20394;BME280;10356;50.544;9.642;2023-02-23T00:17:33;97930.88;;;4.41;100.00
20394;BME280;10356;50.544;9.642;2023-02-23T00:20:01;97927.00;;;4.34;100.00
20394;BME280;10356;50.544;9.642;2023-02-23T00:22:32;97927.06;;;4.33;100.00
20394;BME280;10356;50.544;9.642;2023-02-23T00:24:58;97933.31;;;4.28;100.00
20394;BME280;10356;50.544;9.642;2023-02-23T00:27:25;97933.50;;;4.25;100.00
20394;BME280;10356;50.544;9.642;2023-02-23T00:29:51;97934.41;;;4.24;100.00
20394;BME280;10356;50.544;9.642;2023-02-23T00:32:18;97930.19;;;4.23;100.00
20394;BME280;10356;50.544;9.642;2023-02-23T00:34:46;97936.34;;;4.21;100.00
20394;BME280;10356;50.544;9.642;2023-02-23T00:37:14;97935.69;;;4.17;100.00
20394;BME280;10356;50.544;9.642;2023-02-23T00:39:41;97931.53;;;4.15;100.00
20394;BME280;10356;50.544;9.642;2023-02-23T00:42:07;97936.78;;;4.13;100.00
20394;BME280;10356;50.544;9.642;2023-02-23T00:44:34;97941.94;;;4.13;100.00
20394;BME280;10356;50.544;9.642;2023-02-23T00:47:05;97939.38;;;4.13;100.00
20394;BME280;10356;50.544;9.642;2023-02-23T00:49:32;97947.09;;;4.13;100.00
20394;BME280;10356;50.544;9.642;2023-02-23T00:52:00;97936.78;;;4.13;100.00
20394;BME280;10356;50.544;9.642;2023-02-23T00:54:26;97933.28;;;4.14;100.00
20394;BME280;10356;50.544;9.642;2023-02-23T00:56:53;97938.38;;;4.16;100.00
20394;BME280;10356;50.544;9.642;2023-02-23T00:59:19;97933.03;;;4.19;100.00
20394;BME280;10356;50.544;9.642;2023-02-23T01:01:46;97934.41;;;4.24;100.00
20394;BME280;10356;50.544;9.642;2023-02-23T01:04:13;97938.47;;;4.28;100.00
20394;BME280;10356;50.544;9.642;2023-02-23T01:06:40;97937.31;;;4.34;100.00
20394;BME280;10356;50.544;9.642;2023-02-23T01:09:10;97938.50;;;4.43;100.00
20394;BME280;10356;50.544;9.642;2023-02-23T01:11:38;97936.31;;;4.51;100.00
20394;BME280;10356;50.544;9.642;2023-02-23T01:14:05;97935.97;;;4.57;100.00
20394;BME280;10356;50.544;9.642;2023-02-23T01:16:33;97928.59;;;4.65;100.00
20394;BME280;10356;50.544;9.642;2023-02-23T01:19:03;97936.81;;;4.71;100.00
20394;BME280;10356;50.544;9.642;2023-02-23T01:21:32;97929.66;;;4.76;100.00
20394;BME280;10356;50.544;9.642;2023-02-23T01:23:59;97935.25;;;4.83;100.00
20394;BME280;10356;50.544;9.642;2023-02-23T01:26:29;97925.66;;;4.85;100.00
20394;BME280;10356;50.544;9.642;2023-02-23T01:28:57;97925.66;;;4.85;100.00
20394;BME280;10356;50.544;9.642;2023-02-23T01:31:25;97930.75;;;4.86;100.00
20394;BME280;10356;50.544;9.642;2023-02-23T01:33:53;97941.63;;;4.91;100.00
20394;BME280;10356;50.544;9.642;2023-02-23T01:36:19;97934.16;;;5.01;100.00
20394;BME280;10356;50.544;9.642;2023-02-23T01:38:47;97930.66;;;5.02;100.00
20394;BME280;10356;50.544;9.642;2023-02-23T01:41:14;97931.31;;;5.05;100.00
20394;BME280;10356;50.544;9.642;2023-02-23T01:44:00;97931.94;;;5.09;100.00
20394;BME280;10356;50.544;9.642;2023-02-23T01:46:29;97928.44;;;5.10;100.00
20394;BME280;10356;50.544;9.642;2023-02-23T01:48:56;97923.19;;;5.11;100.00
20394;BME280;10356;50.544;9.642;2023-02-23T01:51:25;97926.69;;;5.10;100.00
20394;BME280;10356;50.544;9.642;2023-02-23T01:53:55;97931.94;;;5.09;100.00
20394;BME280;10356;50.544;9.642;2023-02-23T01:56:25;97926.78;;;5.09;100.00
20394;BME280;10356;50.544;9.642;2023-02-23T01:58:54;97919.97;;;5.08;100.00
20394;BME280;10356;50.544;9.642;2023-02-23T02:01:24;97921.81;;;5.06;100.00
20394;BME280;10356;50.544;9.642;2023-02-23T02:03:54;97923.44;;;5.07;100.00
20394;BME280;10356;50.544;9.642;2023-02-23T02:06:23;97919.13;;;5.07;100.00
20394;BME280;10356;50.544;9.642;2023-02-23T02:08:55;97921.59;;;5.09;100.00
20394;BME280;10356;50.544;9.642;2023-02-23T02:11:23;97911.28;;;5.09;100.00
20394;BME280;10356;50.544;9.642;2023-02-23T02:14:02;97907.59;;;5.13;100.00
20394;BME280;10356;50.544;9.642;2023-02-23T02:17:08;97909.16;;;5.16;100.00
20394;BME280;10356;50.544;9.642;2023-02-23T02:19:58;97910.56;;;5.21;100.00
20394;BME280;10356;50.544;9.642;2023-02-23T02:22:47;97911.75;;;5.16;100.00
20394;BME280;10356;50.544;9.642;2023-02-23T02:25:30;97916.84;;;5.17;100.00
20394;BME280;10356;50.544;9.642;2023-02-23T02:28:18;97906.50;;;5.17;100.00
20394;BME280;10356;50.544;9.642;2023-02-23T02:34:04;97906.19;;;5.22;100.00
20394;BME280;10356;50.544;9.642;2023-02-23T02:36:50;97900.97;;;5.23;100.00
20394;BME280;10356;50.544;9.642;2023-02-23T02:39:25;97894.88;;;5.24;100.00
20394;BME280;10356;50.544;9.642;2023-02-23T02:42:08;97893.84;;;5.27;100.00
20394;BME280;10356;50.544;9.642;2023-02-23T02:44:43;97891.00;;;5.31;100.00
20394;BME280;10356;50.544;9.642;2023-02-23T02:47:16;97893.38;;;5.34;100.00
20394;BME280;10356;50.544;9.642;2023-02-23T02:49:49;97895.78;;;5.37;100.00
20394;BME280;10356;50.544;9.642;2023-02-23T02:52:20;97895.56;;;5.40;100.00
20394;BME280;10356;50.544;9.642;2023-02-23T02:54:51;97892.63;;;5.32;100.00
20394;BME280;10356;50.544;9.642;2023-02-23T02:57:19;97887.69;;;5.29;100.00
20394;BME280;10356;50.544;9.642;2023-02-23T02:59:48;97891.38;;;5.25;100.00
20394;BME280;10356;50.544;9.642;2023-02-23T03:02:34;97883.06;;;5.20;100.00
20394;BME280;10356;50.544;9.642;2023-02-23T03:05:23;97877.16;;;5.18;100.00
20394;BME280;10356;50.544;9.642;2023-02-23T03:08:17;97890.06;;;5.18;100.00
20394;BME280;10356;50.544;9.642;2023-02-23T03:11:06;97881.59;;;5.16;100.00
20394;BME280;10356;50.544;9.642;2023-02-23T03:14:02;97880.75;;;5.16;100.00
20394;BME280;10356;50.544;9.642;2023-02-23T03:16:58;97885.84;;;5.17;100.00
20394;BME280;10356;50.544;9.642;2023-02-23T03:19:47;97885.19;;;5.13;100.00
20394;BME280;10356;50.544;9.642;2023-02-23T03:22:37;97880.75;;;5.16;100.00
20394;BME280;10356;50.544;9.642;2023-02-23T03:25:28;97887.50;;;5.18;100.00
20394;BME280;10356;50.544;9.642;2023-02-23T03:28:17;97886.19;;;5.11;100.00
20394;BME280;10356;50.544;9.642;2023-02-23T03:31:08;97889.16;;;5.05;100.00
20394;BME280;10356;50.544;9.642;2023-02-23T03:34:00;97890.38;;;4.99;100.00
20394;BME280;10356;50.544;9.642;2023-02-23T03:36:51;97884.75;;;4.93;100.00
20394;BME280;10356;50.544;9.642;2023-02-23T03:39:41;97889.16;;;4.91;100.00
20394;BME280;10356;50.544;9.642;2023-02-23T03:42:31;97891.69;;;4.92;100.00
20394;BME280;10356;50.544;9.642;2023-02-23T03:45:20;97885.31;;;4.98;100.00
20394;BME280;10356;50.544;9.642;2023-02-23T03:48:09;97882.34;;;5.04;100.00
20394;BME280;10356;50.544;9.642;2023-02-23T03:50:55;97886.28;;;5.09;100.00
20394;BME280;10356;50.544;9.642;2023-02-23T03:53:46;97888.59;;;5.14;100.00
20394;BME280;10356;50.544;9.642;2023-02-23T03:56:34;97891.75;;;5.19;100.00
20394;BME280;10356;50.544;9.642;2023-02-23T03:59:24;97892.28;;;5.24;100.00
20394;BME280;10356;50.544;9.642;2023-02-23T04:02:13;97895.69;;;5.25;100.00
20394;BME280;10356;50.544;9.642;2023-02-23T04:05:01;97903.56;;;5.23;100.00
20394;BME280;10356;50.544;9.642;2023-02-23T04:07:50;97898.38;;;5.23;100.00
20394;BME280;10356;50.544;9.642;2023-02-23T04:10:40;97893.94;;;5.25;100.00
20394;BME280;10356;50.544;9.642;2023-02-23T04:13:29;97897.34;;;5.26;100.00
20394;BME280;10356;50.544;9.642;2023-02-23T04:16:01;97899.75;;;5.29;100.00
20394;BME280;10356;50.544;9.642;2023-02-23T04:18:29;97892.84;;;5.29;100.00
20394;BME280;10356;50.544;9.642;2023-02-23T04:20:57;97896.97;;;5.32;100.00
20394;BME280;10356;50.544;9.642;2023-02-23T04:23:24;97895.94;;;5.34;100.00
20394;BME280;10356;50.544;9.642;2023-02-23T04:25:51;97899.28;;;5.36;100.00
20394;BME280;10356;50.544;9.642;2023-02-23T04:28:18;97901.56;;;5.41;100.00
20394;BME280;10356;50.544;9.642;2023-02-23T04:30:45;97899.81;;;5.41;100.00
20394;BME280;10356;50.544;9.642;2023-02-23T04:33:13;97896.75;;;5.49;100.00
20394;BME280;10356;50.544;9.642;2023-02-23T04:35:40;97894.81;;;5.52;100.00
20394;BME280;10356;50.544;9.642;2023-02-23T04:38:07;97904.03;;;5.56;100.00
20394;BME280;10356;50.544;9.642;2023-02-23T04:40:33;97904.03;;;5.56;100.00
20394;BME280;10356;50.544;9.642;2023-02-23T04:43:00;97904.97;;;5.55;100.00
20394;BME280;10356;50.544;9.642;2023-02-23T04:45:26;97904.97;;;5.55;100.00
20394;BME280;10356;50.544;9.642;2023-02-23T04:47:53;97908.28;;;5.57;100.00
20394;BME280;10356;50.544;9.642;2023-02-23T04:50:21;97904.84;;;5.57;100.00
20394;BME280;10356;50.544;9.642;2023-02-23T04:52:48;97902.28;;;5.57;100.00
20394;BME280;10356;50.544;9.642;2023-02-23T04:55:17;97903.63;;;5.62;100.00
20394;BME280;10356;50.544;9.642;2023-02-23T04:57:44;97902.63;;;5.65;100.00
20394;BME280;10356;50.544;9.642;2023-02-23T05:00:11;97906.66;;;5.69;100.00
20394;BME280;10356;50.544;9.642;2023-02-23T05:02:38;97902.03;;;5.74;100.00
20394;BME280;10356;50.544;9.642;2023-02-23T05:05:05;97903.81;;;5.73;100.00
20394;BME280;10356;50.544;9.642;2023-02-23T05:07:35;97910.09;;;5.69;100.00
20394;BME280;10356;50.544;9.642;2023-02-23T05:10:02;97907.50;;;5.69;100.00
20394;BME280;10356;50.544;9.642;2023-02-23T05:12:28;97909.34;;;5.67;100.00
20394;BME280;10356;50.544;9.642;2023-02-23T05:14:56;97912.00;;;5.66;100.00
20394;BME280;10356;50.544;9.642;2023-02-23T05:17:22;97907.69;;;5.66;100.00
20394;BME280;10356;50.544;9.642;2023-02-23T05:19:49;97907.50;;;5.69;100.00
20394;BME280;10356;50.544;9.642;2023-02-23T05:22:16;97905.00;;;5.68;100.00
20394;BME280;10356;50.544;9.642;2023-02-23T05:24:44;97894.47;;;5.71;100.00
20394;BME280;10356;50.544;9.642;2023-02-23T05:27:11;97911.56;;;5.73;100.00
20394;BME280;10356;50.544;9.642;2023-02-23T05:29:38;97900.28;;;5.74;100.00
20394;BME280;10356;50.544;9.642;2023-02-23T05:32:05;97907.13;;;5.75;100.00
20394;BME280;10356;50.544;9.642;2023-02-23T05:34:32;97915.59;;;5.77;100.00
20394;BME280;10356;50.544;9.642;2023-02-23T05:36:59;97904.31;;;5.78;100.00
20394;BME280;10356;50.544;9.642;2023-02-23T05:39:25;97905.06;;;5.80;100.00
20394;BME280;10356;50.544;9.642;2023-02-23T05:41:53;97909.31;;;5.81;100.00
20394;BME280;10356;50.544;9.642;2023-02-23T05:44:20;97905.72;;;5.84;100.00
20394;BME280;10356;50.544;9.642;2023-02-23T05:46:46;97913.38;;;5.85;100.00
20394;BME280;10356;50.544;9.642;2023-02-23T05:49:13;97904.91;;;5.83;100.00
20394;BME280;10356;50.544;9.642;2023-02-23T05:51:39;97909.13;;;5.84;100.00
20394;BME280;10356;50.544;9.642;2023-02-23T05:54:06;97905.63;;;5.85;100.00
20394;BME280;10356;50.544;9.642;2023-02-23T05:56:32;97914.84;;;5.89;100.00
20394;BME280;10356;50.544;9.642;2023-02-23T05:59:00;97910.41;;;5.91;100.00
20394;BME280;10356;50.544;9.642;2023-02-23T06:01:29;97908.56;;;5.93;100.00
20394;BME280;10356;50.544;9.642;2023-02-23T06:03:55;97908.94;;;5.87;100.00
20394;BME280;10356;50.544;9.642;2023-02-23T06:06:22;97908.00;;;5.88;100.00
20394;BME280;10356;50.544;9.642;2023-02-23T06:08:49;97901.19;;;5.87;100.00
20394;BME280;10356;50.544;9.642;2023-02-23T06:11:16;97905.31;;;5.90;100.00
20394;BME280;10356;50.544;9.642;2023-02-23T06:13:43;97905.13;;;5.93;100.00
20394;BME280;10356;50.544;9.642;2023-02-23T06:16:10;97912.59;;;5.98;100.00
20394;BME280;10356;50.544;9.642;2023-02-23T06:18:37;97916.72;;;6.00;100.00
20394;BME280;10356;50.544;9.642;2023-02-23T06:21:04;97919.25;;;6.02;100.00
20394;BME280;10356;50.544;9.642;2023-02-23T06:23:32;97916.66;;;6.02;100.00
20394;BME280;10356;50.544;9.642;2023-02-23T06:25:58;97919.03;;;6.05;100.00
20394;BME280;10356;50.544;9.642;2023-02-23T06:28:25;97919.75;;;6.07;100.00
20394;BME280;10356;50.544;9.642;2023-02-23T06:30:53;97920.59;;;6.07;100.00
20394;BME280;10356;50.544;9.642;2023-02-23T06:33:22;97923.06;;;6.09;100.00
20394;BME280;10356;50.544;9.642;2023-02-23T06:35:48;97924.81;;;6.08;100.00
20394;BME280;10356;50.544;9.642;2023-02-23T06:38:15;97932.69;;;6.07;100.00
20394;BME280;10356;50.544;9.642;2023-02-23T06:40:41;97935.16;;;6.08;100.00
20394;BME280;10356;50.544;9.642;2023-02-23T06:43:08;97931.03;;;6.06;100.00
20394;BME280;10356;50.544;9.642;2023-02-23T06:45:36;97938.34;;;5.99;100.00
20394;BME280;10356;50.544;9.642;2023-02-23T06:48:03;97946.13;;;5.99;100.00
20394;BME280;10356;50.544;9.642;2023-02-23T06:50:31;97944.25;;;6.01;100.00
20394;BME280;10356;50.544;9.642;2023-02-23T06:52:57;97944.16;;;6.03;100.00
20394;BME280;10356;50.544;9.642;2023-02-23T06:55:24;97944.88;;;6.05;100.00
20394;BME280;10356;50.544;9.642;2023-02-23T06:57:50;97946.34;;;6.09;100.00
20394;BME280;10356;50.544;9.642;2023-02-23T07:00:19;97953.91;;;6.12;100.00
20394;BME280;10356;50.544;9.642;2023-02-23T07:02:45;97957.31;;;6.12;100.00
20394;BME280;10356;50.544;9.642;2023-02-23T07:05:12;97953.72;;;6.15;100.00
20394;BME280;10356;50.544;9.642;2023-02-23T07:07:40;97956.28;;;6.15;100.00
20394;BME280;10356;50.544;9.642;2023-02-23T07:10:07;97955.38;;;6.16;100.00
20394;BME280;10356;50.544;9.642;2023-02-23T07:12:34;97950.94;;;6.18;100.00
20394;BME280;10356;50.544;9.642;2023-02-23T07:15:00;97954.34;;;6.18;100.00
20394;BME280;10356;50.544;9.642;2023-02-23T07:17:27;97957.56;;;6.22;100.00
20394;BME280;10356;50.544;9.642;2023-02-23T07:19:53;97960.06;;;6.23;100.00
20394;BME280;10356;50.544;9.642;2023-02-23T07:22:20;97967.72;;;6.25;100.00
20394;BME280;10356;50.544;9.642;2023-02-23T07:24:50;97966.69;;;6.27;100.00
20394;BME280;10356;50.544;9.642;2023-02-23T07:27:16;97966.41;;;6.32;100.00
20394;BME280;10356;50.544;9.642;2023-02-23T07:29:43;97967.13;;;6.34;100.00
20394;BME280;10356;50.544;9.642;2023-02-23T07:32:09;97972.09;;;6.37;100.00
20394;BME280;10356;50.544;9.642;2023-02-23T07:34:36;97971.91;;;6.40;100.00
20394;BME280;10356;50.544;9.642;2023-02-23T07:37:03;97973.44;;;6.42;100.00
20394;BME280;10356;50.544;9.642;2023-02-23T07:39:29;97971.63;;;6.44;100.00
20394;BME280;10356;50.544;9.642;2023-02-23T07:41:57;97969.81;;;6.45;100.00
20394;BME280;10356;50.544;9.642;2023-02-23T07:44:24;97980.19;;;6.45;100.00
20394;BME280;10356;50.544;9.642;2023-02-23T07:46:50;97977.31;;;6.49;100.00
20394;BME280;10356;50.544;9.642;2023-02-23T07:49:17;97982.47;;;6.49;100.00
20394;BME280;10356;50.544;9.642;2023-02-23T07:51:43;97986.63;;;6.52;100.00
20394;BME280;10356;50.544;9.642;2023-02-23T07:54:10;97982.28;;;6.52;100.00
20394;BME280;10356;50.544;9.642;2023-02-23T07:56:36;97981.16;;;6.56;100.00
20394;BME280;10356;50.544;9.642;2023-02-23T07:59:04;97984.38;;;6.60;100.00
20394;BME280;10356;50.544;9.642;2023-02-23T08:01:30;97988.41;;;6.64;100.00
20394;BME280;10356;50.544;9.642;2023-02-23T08:03:57;97983.84;;;6.67;100.00
20394;BME280;10356;50.544;9.642;2023-02-23T08:06:23;97987.78;;;6.73;100.00
20394;BME280;10356;50.544;9.642;2023-02-23T08:08:50;97986.47;;;6.80;100.00
20394;BME280;10356;50.544;9.642;2023-02-23T08:11:16;97985.13;;;6.87;100.00
20394;BME280;10356;50.544;9.642;2023-02-23T08:13:43;97988.97;;;6.94;100.00
20394;BME280;10356;50.544;9.642;2023-02-23T08:16:11;97983.38;;;7.00;100.00
20394;BME280;10356;50.544;9.642;2023-02-23T08:18:37;97984.72;;;7.06;100.00
20394;BME280;10356;50.544;9.642;2023-02-23T08:21:04;97983.47;;;7.11;100.00
20394;BME280;10356;50.544;9.642;2023-02-23T08:23:32;97981.28;;;7.18;100.00
20394;BME280;10356;50.544;9.642;2023-02-23T08:25:59;97979.13;;;7.24;100.00
20394;BME280;10356;50.544;9.642;2023-02-23T08:28:27;97975.09;;;7.33;100.00
20394;BME280;10356;50.544;9.642;2023-02-23T08:30:53;97980.75;;;7.38;100.00
20394;BME280;10356;50.544;9.642;2023-02-23T08:33:21;97982.09;;;7.43;100.00
20394;BME280;10356;50.544;9.642;2023-02-23T08:35:48;97977.31;;;7.50;100.00
20394;BME280;10356;50.544;9.642;2023-02-23T08:38:14;97990.88;;;7.53;100.00
20394;BME280;10356;50.544;9.642;2023-02-23T08:40:42;97982.06;;;7.56;100.00
20394;BME280;10356;50.544;9.642;2023-02-23T08:43:09;97983.53;;;7.60;100.00
20394;BME280;10356;50.544;9.642;2023-02-23T08:45:36;97980.38;;;7.68;100.00
20394;BME280;10356;50.544;9.642;2023-02-23T08:48:04;97986.81;;;7.75;100.00
20394;BME280;10356;50.544;9.642;2023-02-23T08:50:32;97978.50;;;7.82;100.00
20394;BME280;10356;50.544;9.642;2023-02-23T08:52:58;97981.16;;;7.93;100.00
20394;BME280;10356;50.544;9.642;2023-02-23T08:55:25;97982.38;;;8.00;100.00
20394;BME280;10356;50.544;9.642;2023-02-23T08:57:51;97985.38;;;8.07;100.00
20394;BME280;10356;50.544;9.642;2023-02-23T09:00:19;97980.44;;;8.15;100.00
20394;BME280;10356;50.544;9.642;2023-02-23T09:02:45;97991.22;;;8.21;100.00
20394;BME280;10356;50.544;9.642;2023-02-23T09:05:12;97991.66;;;8.28;100.00
20394;BME280;10356;50.544;9.642;2023-02-23T09:07:41;97988.81;;;8.31;100.00
20394;BME280;10356;50.544;9.642;2023-02-23T09:10:11;97992.63;;;8.38;100.00
20394;BME280;10356;50.544;9.642;2023-02-23T09:12:38;97987.00;;;8.44;100.00
20394;BME280;10356;50.544;9.642;2023-02-23T09:15:05;97991.63;;;8.52;100.00
20394;BME280;10356;50.544;9.642;2023-02-23T09:17:32;97997.91;;;8.60;100.00
20394;BME280;10356;50.544;9.642;2023-02-23T09:19:58;97987.78;;;8.68;100.00
20394;BME280;10356;50.544;9.642;2023-02-23T09:22:25;97988.78;;;8.78;100.00
20394;BME280;10356;50.544;9.642;2023-02-23T09:24:52;97992.56;;;8.85;100.00
20394;BME280;10356;50.544;9.642;2023-02-23T09:27:19;97993.53;;;8.95;100.00
20394;BME280;10356;50.544;9.642;2023-02-23T09:29:45;97990.00;;;8.96;100.00
20394;BME280;10356;50.544;9.642;2023-02-23T09:32:12;97995.78;;;9.00;100.00
20394;BME280;10356;50.544;9.642;2023-02-23T09:34:39;97997.53;;;8.99;100.00
20394;BME280;10356;50.544;9.642;2023-02-23T09:37:05;98001.56;;;9.03;100.00
20394;BME280;10356;50.544;9.642;2023-02-23T09:39:32;98001.56;;;9.03;100.00
20394;BME280;10356;50.544;9.642;2023-02-23T09:42:09;97997.47;;;9.12;100.00
20394;BME280;10356;50.544;9.642;2023-02-23T09:44:47;97993.81;;;9.14;100.00
20394;BME280;10356;50.544;9.642;2023-02-23T09:47:27;98007.25;;;9.19;100.00
20394;BME280;10356;50.544;9.642;2023-02-23T09:49:58;98003.50;;;9.23;100.00
20394;BME280;10356;50.544;9.642;2023-02-23T09:52:35;98005.16;;;9.24;100.00
20394;BME280;10356;50.544;9.642;2023-02-23T09:55:04;98007.50;;;9.27;100.00
20394;BME280;10356;50.544;9.642;2023-02-23T09:57:36;98006.94;;;9.35;100.00
20394;BME280;10356;50.544;9.642;2023-02-23T10:00:12;98012.03;;;9.37;100.00
20394;BME280;10356;50.544;9.642;2023-02-23T10:02:52;98010.13;;;9.39;100.00
20394;BME280;10356;50.544;9.642;2023-02-23T10:05:22;98003.75;;;9.43;100.00
20394;BME280;10356;50.544;9.642;2023-02-23T10:07:55;98012.50;;;9.53;100.00
20394;BME280;10356;50.544;9.642;2023-02-23T10:10:28;98017.94;;;9.61;100.00
20394;BME280;10356;50.544;9.642;2023-02-23T10:13:06;98011.44;;;9.66;100.00
20394;BME280;10356;50.544;9.642;2023-02-23T10:15:43;98015.81;;;9.66;100.00
20394;BME280;10356;50.544;9.642;2023-02-23T10:18:23;98008.00;;;9.66;100.00
20394;BME280;10356;50.544;9.642;2023-02-23T10:20:58;98010.00;;;9.84;100.00
20394;BME280;10356;50.544;9.642;2023-02-23T10:23:29;98009.78;;;9.87;100.00
20394;BME280;10356;50.544;9.642;2023-02-23T10:25:58;98011.78;;;9.95;100.00
20394;BME280;10356;50.544;9.642;2023-02-23T10:28:32;98020.75;;;9.91;100.00
20394;BME280;10356;50.544;9.642;2023-02-23T10:30:59;98019.78;;;10.03;100.00
20394;BME280;10356;50.544;9.642;2023-02-23T10:33:31;98015.78;;;10.10;100.00
20394;BME280;10356;50.544;9.642;2023-02-23T10:36:09;98009.63;;;10.11;100.00
20394;BME280;10356;50.544;9.642;2023-02-23T10:38:38;98011.97;;;10.25;100.00
20394;BME280;10356;50.544;9.642;2023-02-23T10:41:05;98015.06;;;10.30;100.00
20394;BME280;10356;50.544;9.642;2023-02-23T10:43:33;98012.31;;;10.32;100.00
20394;BME280;10356;50.544;9.642;2023-02-23T10:46:00;98016.91;;;10.39;100.00
20394;BME280;10356;50.544;9.642;2023-02-23T10:48:32;98023.16;;;10.48;100.00
20394;BME280;10356;50.544;9.642;2023-02-23T10:51:00;98013.84;;;10.34;100.00
20394;BME280;10356;50.544;9.642;2023-02-23T10:53:31;98012.44;;;10.30;100.00
20394;BME280;10356;50.544;9.642;2023-02-23T10:56:02;98011.75;;;10.17;100.00
20394;BME280;10356;50.544;9.642;2023-02-23T10:58:32;98014.81;;;10.00;100.00
20394;BME280;10356;50.544;9.642;2023-02-23T11:01:06;98009.38;;;10.03;100.00
20394;BME280;10356;50.544;9.642;2023-02-23T11:03:35;98010.44;;;10.00;100.00
20394;BME280;10356;50.544;9.642;2023-02-23T11:06:03;98003.22;;;10.04;100.00
20394;BME280;10356;50.544;9.642;2023-02-23T11:08:31;98010.34;;;9.91;100.00
20394;BME280;10356;50.544;9.642;2023-02-23T11:11:24;98010.56;;;9.88;100.00
20394;BME280;10356;50.544;9.642;2023-02-23T11:13:54;98011.66;;;9.85;100.00
20394;BME280;10356;50.544;9.642;2023-02-23T11:16:23;98011.19;;;9.91;100.00
20394;BME280;10356;50.544;9.642;2023-02-23T11:18:53;98006.31;;;9.98;100.00
20394;BME280;10356;50.544;9.642;2023-02-23T11:21:23;98005.84;;;10.15;100.00
20394;BME280;10356;50.544;9.642;2023-02-23T11:23:52;97998.81;;;10.38;100.00
20394;BME280;10356;50.544;9.642;2023-02-23T11:26:38;97999.81;;;10.78;100.00
20394;BME280;10356;50.544;9.642;2023-02-23T11:29:13;97991.31;;;10.96;100.00
20394;BME280;10356;50.544;9.642;2023-02-23T11:31:46;97995.19;;;11.23;100.00
20394;BME280;10356;50.544;9.642;2023-02-23T11:34:21;97976.25;;;11.30;100.00
20394;BME280;10356;50.544;9.642;2023-02-23T11:36:58;97989.03;;;11.33;100.00
20394;BME280;10356;50.544;9.642;2023-02-23T11:39:25;97987.44;;;11.42;100.00
20394;BME280;10356;50.544;9.642;2023-02-23T11:42:16;97982.50;;;11.39;100.00
20394;BME280;10356;50.544;9.642;2023-02-23T11:44:48;97988.75;;;11.27;100.00
20394;BME280;10356;50.544;9.642;2023-02-23T11:47:18;97981.53;;;11.40;100.00
20394;BME280;10356;50.544;9.642;2023-02-23T11:49:47;97978.34;;;11.36;100.00
20394;BME280;10356;50.544;9.642;2023-02-23T11:52:17;97981.88;;;11.26;100.00
20394;BME280;10356;50.544;9.642;2023-02-23T11:54:50;97979.63;;;11.21;100.00
20394;BME280;10356;50.544;9.642;2023-02-23T11:57:22;97978.94;;;11.19;100.00
20394;BME280;10356;50.544;9.642;2023-02-23T11:59:50;97977.44;;;11.17;100.00
20394;BME280;10356;50.544;9.642;2023-02-23T12:02:22;97974.13;;;11.15;100.00
20394;BME280;10356;50.544;9.642;2023-02-23T12:04:52;97976.56;;;11.07;100.00
20394;BME280;10356;50.544;9.642;2023-02-23T12:07:26;97970.38;;;11.08;100.00
20394;BME280;10356;50.544;9.642;2023-02-23T12:09:59;97976.56;;;11.07;100.00
20394;BME280;10356;50.544;9.642;2023-02-23T12:12:30;97969.44;;;11.09;100.00
20394;BME280;10356;50.544;9.642;2023-02-23T12:15:03;97967.06;;;11.06;100.00
20394;BME280;10356;50.544;9.642;2023-02-23T12:17:39;97965.63;;;11.13;100.00
20394;BME280;10356;50.544;9.642;2023-02-23T12:20:12;97966.69;;;11.10;100.00
20394;BME280;10356;50.544;9.642;2023-02-23T12:22:43;97968.41;;;11.21;100.00
20394;BME280;10356;50.544;9.642;2023-02-23T12:25:19;97962.34;;;11.20;100.00
20394;BME280;10356;50.544;9.642;2023-02-23T12:27:50;97962.94;;;11.33;100.00
20394;BME280;10356;50.544;9.642;2023-02-23T12:30:22;97965.72;;;11.41;100.00
20394;BME280;10356;50.544;9.642;2023-02-23T12:32:56;97964.56;;;11.55;100.00
20394;BME280;10356;50.544;9.642;2023-02-23T12:35:29;97962.50;;;11.49;100.00
20394;BME280;10356;50.544;9.642;2023-02-23T12:38:02;97964.41;;;11.47;100.00
20394;BME280;10356;50.544;9.642;2023-02-23T12:40:33;97964.97;;;11.50;100.00
20394;BME280;10356;50.544;9.642;2023-02-23T12:43:04;97955.94;;;11.64;100.00
20394;BME280;10356;50.544;9.642;2023-02-23T12:45:37;97960.66;;;11.70;100.00
20394;BME280;10356;50.544;9.642;2023-02-23T12:48:13;97957.94;;;11.71;100.00
20394;BME280;10356;50.544;9.642;2023-02-23T12:50:49;97953.00;;;11.78;99.42
20394;BME280;10356;50.544;9.642;2023-02-23T12:53:20;97950.28;;;11.89;99.46
20394;BME280;10356;50.544;9.642;2023-02-23T12:56:03;97955.13;;;12.03;97.50
20394;BME280;10356;50.544;9.642;2023-02-23T12:58:40;97957.50;;;12.25;96.36
20394;BME280;10356;50.544;9.642;2023-02-23T13:01:11;97952.56;;;12.32;95.31
20394;BME280;10356;50.544;9.642;2023-02-23T13:06:51;97953.34;;;12.23;94.96
20394;BME280;10356;50.544;9.642;2023-02-23T13:09:42;97956.94;;;12.22;95.70
20394;BME280;10356;50.544;9.642;2023-02-23T13:12:35;97948.41;;;12.20;94.85
20394;BME280;10356;50.544;9.642;2023-02-23T13:15:14;97946.75;;;12.28;94.08
20394;BME280;10356;50.544;9.642;2023-02-23T13:17:48;97946.19;;;12.34;95.10
20394;BME280;10356;50.544;9.642;2023-02-23T13:20:23;97942.63;;;12.54;94.01
20394;BME280;10356;50.544;9.642;2023-02-23T13:22:57;97944.28;;;12.55;93.06
20394;BME280;10356;50.544;9.642;2023-02-23T13:25:34;97940.16;;;12.53;91.23